Time;durP1;ratioP1;P1;durP2;ratioP2;P2;SDS_P1;SDS_P2;PMS_P1;PMS_P2;Temp;Humidity;BMP_temperature;BMP_pressure;BME280_temperature;BME280_humidity;BME280_pressure;Samples;Min_cycle;Max_cycle;Signal;HPM_P1;HPM_P2
2023/05/21 00:01:19;;;;;;;4.93;3.38;;;16.00;63.30;;;;;;4969989;28;20043;-79
2023/05/21 00:03:46;;;;;;;5.70;3.35;;;16.00;63.50;;;;;;4971446;28;20089;-79
2023/05/21 00:06:14;;;;;;;6.03;3.35;;;16.00;63.70;;;;;;4970005;28;20142;-79
2023/05/21 00:08:41;;;;;;;6.23;3.13;;;16.00;63.80;;;;;;4969938;28;20058;-79
2023/05/21 00:11:10;;;;;;;7.30;3.33;;;16.00;63.90;;;;;;4952294;28;20401;-79
2023/05/21 00:13:37;;;;;;;5.32;3.00;;;16.00;63.80;;;;;;4969652;28;20058;-79
2023/05/21 00:16:04;;;;;;;6.55;3.00;;;16.00;63.80;;;;;;4969691;28;20051;-79
2023/05/21 00:18:33;;;;;;;5.88;3.08;;;16.00;63.90;;;;;;4971429;28;20619;-78
2023/05/21 00:21:00;;;;;;;5.37;2.93;;;16.00;63.80;;;;;;4970116;28;20517;-79
2023/05/21 00:23:27;;;;;;;5.03;2.75;;;16.00;63.90;;;;;;4969250;28;20054;-79
2023/05/21 00:25:54;;;;;;;6.00;3.33;;;16.00;63.90;;;;;;4970940;28;20134;-78
2023/05/21 00:28:22;;;;;;;6.20;3.20;;;16.00;64.00;;;;;;4974235;28;20509;-78
2023/05/21 00:30:50;;;;;;;6.03;2.92;;;16.00;64.00;;;;;;4953385;28;20054;-79
2023/05/21 00:33:17;;;;;;;7.20;3.00;;;16.00;63.90;;;;;;4969275;28;20059;-79
2023/05/21 00:35:43;;;;;;;7.32;3.40;;;16.00;64.00;;;;;;4969874;28;20055;-79
2023/05/21 00:38:11;;;;;;;6.75;3.10;;;16.00;63.90;;;;;;4965616;28;20113;-79
2023/05/21 00:40:40;;;;;;;6.72;3.08;;;16.00;63.90;;;;;;4952958;28;20593;-80
2023/05/21 00:43:09;;;;;;;6.10;3.13;;;16.00;64.00;;;;;;4957121;28;20066;-79
2023/05/21 00:45:38;;;;;;;6.67;3.40;;;16.00;64.10;;;;;;4951987;28;20126;-79
2023/05/21 00:48:06;;;;;;;6.18;3.20;;;16.00;64.20;;;;;;4969243;28;20173;-79
2023/05/21 00:50:34;;;;;;;6.00;3.30;;;15.90;63.90;;;;;;4952728;28;20586;-79
2023/05/21 00:53:02;;;;;;;6.13;3.00;;;16.00;64.20;;;;;;4968925;28;20051;-80
2023/05/21 00:55:29;;;;;;;5.90;3.20;;;15.90;64.30;;;;;;4982708;28;20091;-79
2023/05/21 00:57:56;;;;;;;6.73;3.67;;;15.90;64.20;;;;;;4982578;28;20044;-79
2023/05/21 01:00:25;;;;;;;5.57;3.03;;;15.90;64.30;;;;;;4966279;28;20166;-79
2023/05/21 01:02:53;;;;;;;5.68;3.33;;;15.90;64.20;;;;;;4961809;28;20057;-79
2023/05/21 01:05:21;;;;;;;7.53;3.60;;;15.80;64.30;;;;;;4969006;28;20609;-79
2023/05/21 01:07:47;;;;;;;6.78;3.50;;;15.80;64.40;;;;;;4952880;28;20055;-79
2023/05/21 01:10:14;;;;;;;6.80;3.30;;;15.80;64.40;;;;;;4968759;28;20051;-79
2023/05/21 01:12:44;;;;;;;7.35;3.15;;;15.80;64.40;;;;;;4952941;28;20067;-78
2023/05/21 01:15:11;;;;;;;6.97;3.55;;;15.80;64.70;;;;;;4953084;28;20395;-79
2023/05/21 01:17:44;;;;;;;5.75;2.95;;;15.80;65.00;;;;;;4968702;28;20577;-79
2023/05/21 01:20:16;;;;;;;6.72;3.53;;;15.80;65.00;;;;;;4967998;28;20136;-79
2023/05/21 01:22:51;;;;;;;6.70;3.30;;;15.80;65.00;;;;;;4965344;28;20239;-79
2023/05/21 01:25:18;;;;;;;6.03;3.00;;;15.80;64.80;;;;;;4965554;28;20770;-79
2023/05/21 01:27:45;;;;;;;6.68;3.15;;;15.80;64.80;;;;;;4958278;28;20058;-79
2023/05/21 01:30:14;;;;;;;5.63;3.13;;;15.80;65.00;;;;;;4967263;28;20058;-79
2023/05/21 01:32:48;;;;;;;5.75;3.70;;;15.80;65.20;;;;;;4963722;28;20089;-79
2023/05/21 01:35:21;;;;;;;5.83;3.23;;;15.80;65.40;;;;;;4952893;28;20048;-79
2023/05/21 01:37:55;;;;;;;8.70;3.47;;;15.80;65.20;;;;;;4967773;28;20142;-80
2023/05/21 01:40:29;;;;;;;6.20;3.17;;;15.80;65.30;;;;;;4952500;28;20631;-79
2023/05/21 01:42:58;;;;;;;5.35;3.53;;;15.80;65.30;;;;;;4968881;28;20524;-79
2023/05/21 01:45:27;;;;;;;5.68;3.50;;;15.70;65.30;;;;;;4968326;28;20093;-80
2023/05/21 01:47:56;;;;;;;5.43;3.50;;;15.70;65.20;;;;;;4968652;28;20130;-79
2023/05/21 01:50:23;;;;;;;6.72;3.28;;;15.70;65.20;;;;;;4968646;28;20047;-79
2023/05/21 01:52:53;;;;;;;5.78;3.05;;;15.80;65.40;;;;;;4967920;28;20051;-79
2023/05/21 01:55:23;;;;;;;7.95;3.60;;;15.70;65.40;;;;;;4950949;28;20126;-79
2023/05/21 01:57:51;;;;;;;5.13;3.20;;;15.70;65.40;;;;;;4967759;28;20102;-78
2023/05/21 02:00:19;;;;;;;6.97;3.10;;;15.70;65.20;;;;;;4966765;28;20052;-79
2023/05/21 02:02:46;;;;;;;6.68;3.30;;;15.70;65.60;;;;;;4966705;28;20051;-79
2023/05/21 02:05:13;;;;;;;7.70;3.83;;;15.60;66.00;;;;;;4950833;28;20134;-79
2023/05/21 02:07:40;;;;;;;6.95;2.90;;;15.60;66.00;;;;;;4966965;28;20055;-79
2023/05/21 02:10:09;;;;;;;7.03;3.50;;;15.60;66.20;;;;;;4966585;28;20051;-79
2023/05/21 02:12:36;;;;;;;7.73;3.73;;;15.60;66.50;;;;;;4949399;28;20174;-79
2023/05/21 02:15:04;;;;;;;7.43;3.75;;;15.60;66.50;;;;;;4968629;28;20059;-79
2023/05/21 02:17:32;;;;;;;6.57;3.53;;;15.60;66.20;;;;;;4968369;28;20047;-79
2023/05/21 02:20:07;;;;;;;6.65;3.50;;;15.60;66.50;;;;;;4967948;28;20474;-79
2023/05/21 02:22:34;;;;;;;8.38;3.70;;;15.60;66.60;;;;;;4968070;28;20454;-80
2023/05/21 02:25:01;;;;;;;8.07;3.63;;;15.50;66.60;;;;;;4969582;28;20063;-79
2023/05/21 02:27:30;;;;;;;7.10;3.47;;;15.60;66.80;;;;;;4969348;28;20580;-79
2023/05/21 02:29:57;;;;;;;6.72;3.55;;;15.50;66.90;;;;;;4950483;28;20043;-80
2023/05/21 02:32:24;;;;;;;7.05;3.90;;;15.50;66.80;;;;;;4967748;28;20055;-79
2023/05/21 02:34:51;;;;;;;6.38;3.80;;;15.50;66.70;;;;;;4967596;28;20134;-78
2023/05/21 02:37:19;;;;;;;8.27;3.53;;;15.50;66.70;;;;;;4968140;28;20043;-79
2023/05/21 02:39:46;;;;;;;9.05;3.63;;;15.50;66.60;;;;;;4968919;28;20051;-79
2023/05/21 02:42:12;;;;;;;6.97;3.60;;;15.50;66.60;;;;;;4967295;28;20086;-79
2023/05/21 02:44:41;;;;;;;6.90;3.80;;;15.50;66.60;;;;;;4951522;28;20576;-79
2023/05/21 02:47:09;;;;;;;8.63;3.80;;;15.50;66.70;;;;;;4966525;28;20078;-79
2023/05/21 02:49:36;;;;;;;7.27;4.33;;;15.50;66.70;;;;;;4967863;28;20134;-79
2023/05/21 02:52:03;;;;;;;8.98;4.10;;;15.50;66.80;;;;;;4967124;28;20066;-79
2023/05/21 02:54:31;;;;;;;7.00;3.97;;;15.50;66.50;;;;;;4967878;28;20048;-80
2023/05/21 02:56:58;;;;;;;7.90;4.45;;;15.50;66.90;;;;;;4966326;28;20051;-79
2023/05/21 02:59:25;;;;;;;8.43;4.28;;;15.50;67.20;;;;;;4951229;28;20534;-79
2023/05/21 03:01:54;;;;;;;6.57;3.80;;;15.40;67.20;;;;;;4950886;28;20134;-79
2023/05/21 03:04:21;;;;;;;8.60;4.00;;;15.40;67.10;;;;;;4950176;28;20135;-79
2023/05/21 03:06:50;;;;;;;8.18;4.38;;;15.40;67.20;;;;;;4951089;28;20048;-79
2023/05/21 03:09:17;;;;;;;8.77;4.03;;;15.40;67.20;;;;;;4950630;28;20130;-79
2023/05/21 03:11:44;;;;;;;8.77;4.22;;;15.40;67.00;;;;;;4950694;28;20049;-79
2023/05/21 03:14:11;;;;;;;9.07;4.17;;;15.40;66.70;;;;;;4966790;28;20047;-78
2023/05/21 03:16:40;;;;;;;7.93;4.20;;;15.40;67.20;;;;;;4967175;28;20138;-79
2023/05/21 03:19:08;;;;;;;7.88;3.95;;;15.40;67.20;;;;;;4967189;28;20150;-79
2023/05/21 03:21:36;;;;;;;8.60;4.55;;;15.40;67.20;;;;;;4966013;28;20055;-79
2023/05/21 03:24:03;;;;;;;8.13;4.45;;;15.40;67.40;;;;;;4966779;28;20059;-79
2023/05/21 03:26:30;;;;;;;7.50;4.00;;;15.40;67.30;;;;;;4951687;28;20124;-80
2023/05/21 03:28:59;;;;;;;9.15;4.55;;;15.30;67.10;;;;;;4966814;28;20055;-79
2023/05/21 03:31:27;;;;;;;8.25;4.45;;;15.30;67.30;;;;;;4966923;28;20051;-79
2023/05/21 03:34:07;;;;;;;7.50;4.10;;;15.40;67.20;;;;;;4966665;28;20057;-79
2023/05/21 03:36:35;;;;;;;7.70;4.03;;;15.30;67.10;;;;;;4965889;28;20135;-78
2023/05/21 03:39:03;;;;;;;7.77;4.03;;;15.40;67.20;;;;;;4966455;28;20118;-79
2023/05/21 03:41:33;;;;;;;8.05;4.15;;;15.30;67.30;;;;;;4966234;28;20540;-79
2023/05/21 03:44:08;;;;;;;8.25;4.13;;;15.30;67.20;;;;;;4967058;28;20134;-79
2023/05/21 03:46:46;;;;;;;8.27;4.15;;;15.30;67.60;;;;;;4950952;28;20058;-79
2023/05/21 03:49:39;;;;;;;8.93;4.45;;;15.30;67.50;;;;;;4964277;28;20555;-79
2023/05/21 03:52:09;;;;;;;7.53;4.43;;;15.30;67.60;;;;;;4950309;28;20062;-79
2023/05/21 03:54:36;;;;;;;10.02;4.68;;;15.30;67.50;;;;;;4949914;28;20075;-79
2023/05/21 03:57:07;;;;;;;9.15;4.60;;;15.30;67.70;;;;;;4966526;28;21074;-79
2023/05/21 03:59:35;;;;;;;8.68;4.60;;;15.30;67.50;;;;;;4966452;28;20130;-79
2023/05/21 04:02:01;;;;;;;7.80;4.15;;;15.30;67.90;;;;;;4966670;28;20656;-79
2023/05/21 04:04:29;;;;;;;8.33;4.40;;;15.20;68.00;;;;;;4950868;28;20934;-79
2023/05/21 04:06:56;;;;;;;7.93;4.20;;;15.20;68.00;;;;;;4966922;28;20517;-79
2023/05/21 04:09:24;;;;;;;7.82;4.35;;;15.20;68.00;;;;;;4969362;28;20135;-79
2023/05/21 04:11:52;;;;;;;8.95;4.40;;;15.20;68.20;;;;;;4968791;28;20787;-79
2023/05/21 04:14:19;;;;;;;9.85;4.18;;;15.20;68.30;;;;;;4969915;28;20047;-79
2023/05/21 04:16:47;;;;;;;8.47;4.40;;;15.20;68.00;;;;;;4970138;28;20051;-79
2023/05/21 04:19:14;;;;;;;7.72;4.40;;;15.20;68.20;;;;;;4970064;28;20887;-79
2023/05/21 04:21:43;;;;;;;8.52;4.05;;;15.20;68.10;;;;;;4969029;28;20174;-79
2023/05/21 04:24:12;;;;;;;9.00;4.63;;;15.20;68.40;;;;;;4953297;28;20119;-79
2023/05/21 04:26:52;;;;;;;8.73;3.92;;;15.20;68.40;;;;;;4969784;28;20074;-79
2023/05/21 04:29:20;;;;;;;8.73;4.00;;;15.20;68.50;;;;;;4968595;28;20087;-79
2023/05/21 04:31:49;;;;;;;7.65;4.03;;;15.10;68.60;;;;;;4969258;28;20047;-78
2023/05/21 04:34:17;;;;;;;8.30;3.97;;;15.10;68.70;;;;;;4986047;28;20641;-79
2023/05/21 04:36:45;;;;;;;7.50;4.22;;;15.10;68.50;;;;;;4965752;28;20053;-79
2023/05/21 04:39:13;;;;;;;8.52;4.00;;;15.10;68.50;;;;;;4985743;28;20051;-79
2023/05/21 04:41:41;;;;;;;7.97;4.13;;;15.10;68.70;;;;;;4968814;28;20043;-79
2023/05/21 04:44:09;;;;;;;8.10;3.97;;;15.10;68.90;;;;;;4953551;28;20079;-79
2023/05/21 04:46:37;;;;;;;8.15;4.35;;;15.10;68.80;;;;;;4961501;28;20051;-79
2023/05/21 04:49:04;;;;;;;9.32;4.03;;;15.00;68.80;;;;;;4952904;28;20059;-79
2023/05/21 04:51:32;;;;;;;8.32;4.18;;;15.10;68.60;;;;;;4976683;28;20065;-78
2023/05/21 04:53:59;;;;;;;7.83;4.17;;;15.10;68.80;;;;;;4953222;28;20058;-79
2023/05/21 04:56:26;;;;;;;8.23;4.00;;;15.00;68.90;;;;;;4969839;28;20059;-78
2023/05/21 04:58:53;;;;;;;7.47;3.90;;;15.00;68.70;;;;;;4952723;28;20052;-79
2023/05/21 05:01:24;;;;;;;8.95;4.25;;;15.00;68.80;;;;;;4952816;28;20051;-78
2023/05/21 05:03:51;;;;;;;7.43;4.03;;;15.00;69.00;;;;;;4953262;28;20066;-78
2023/05/21 05:06:18;;;;;;;6.77;3.73;;;15.00;68.90;;;;;;4953819;28;20059;-78
2023/05/21 05:08:46;;;;;;;8.77;4.20;;;15.00;68.80;;;;;;4985737;28;20071;-78
2023/05/21 05:11:14;;;;;;;9.52;3.78;;;15.00;68.70;;;;;;4969223;28;20079;-78
2023/05/21 05:13:42;;;;;;;8.40;3.83;;;15.00;68.70;;;;;;4969537;28;20350;-78
2023/05/21 05:16:10;;;;;;;8.25;3.78;;;15.00;68.90;;;;;;4953194;28;20708;-78
2023/05/21 05:18:38;;;;;;;8.37;3.80;;;15.00;68.80;;;;;;4969560;28;20051;-78
2023/05/21 05:21:05;;;;;;;7.38;4.13;;;15.00;68.80;;;;;;4967214;28;20585;-78
2023/05/21 05:23:32;;;;;;;7.97;4.10;;;15.00;68.80;;;;;;4941720;28;20051;-78
2023/05/21 05:25:59;;;;;;;8.32;3.90;;;15.10;68.80;;;;;;4943497;28;20051;-79
2023/05/21 05:28:27;;;;;;;7.35;3.88;;;15.10;69.00;;;;;;4953350;28;20138;-78
2023/05/21 05:30:55;;;;;;;8.57;3.53;;;15.10;69.00;;;;;;4952370;28;20118;-78
2023/05/21 05:33:24;;;;;;;7.88;3.95;;;15.10;69.00;;;;;;4968808;28;20138;-78
2023/05/21 05:35:53;;;;;;;6.70;3.60;;;15.10;69.10;;;;;;4969407;28;20081;-78
2023/05/21 05:38:21;;;;;;;9.50;3.88;;;15.10;68.90;;;;;;4967987;28;20127;-78
2023/05/21 05:40:48;;;;;;;9.60;3.90;;;15.10;69.10;;;;;;4952822;28;20047;-78
2023/05/21 05:43:15;;;;;;;8.47;3.90;;;15.10;69.10;;;;;;4969123;28;20459;-78
2023/05/21 05:45:42;;;;;;;7.07;3.78;;;15.10;69.30;;;;;;4969128;28;20063;-78
2023/05/21 05:48:13;;;;;;;8.18;3.85;;;15.10;69.40;;;;;;4968928;28;20054;-78
2023/05/21 05:50:41;;;;;;;7.88;4.20;;;15.10;69.40;;;;;;4968627;28;20051;-78
2023/05/21 05:53:12;;;;;;;8.20;3.70;;;15.20;69.40;;;;;;4968665;28;20052;-78
2023/05/21 05:55:39;;;;;;;6.97;3.57;;;15.20;69.60;;;;;;4952123;28;20062;-78
2023/05/21 05:58:06;;;;;;;9.07;4.35;;;15.20;69.50;;;;;;4952472;28;20079;-78
2023/05/21 06:00:44;;;;;;;9.32;3.83;;;15.20;69.50;;;;;;4968331;28;20059;-78
2023/05/21 06:03:13;;;;;;;9.35;4.00;;;15.20;69.50;;;;;;4948165;28;20158;-78
2023/05/21 06:05:42;;;;;;;7.82;3.80;;;15.20;69.80;;;;;;4958169;28;20388;-78
2023/05/21 06:08:10;;;;;;;8.27;3.73;;;15.20;69.90;;;;;;4968553;28;20186;-78
2023/05/21 06:10:37;;;;;;;8.13;3.85;;;15.20;69.70;;;;;;4967419;28;20058;-78
2023/05/21 06:13:04;;;;;;;9.15;4.15;;;15.20;69.90;;;;;;4950823;28;20097;-78
2023/05/21 06:15:33;;;;;;;7.22;3.60;;;15.20;69.50;;;;;;4951047;28;20147;-78
2023/05/21 06:18:00;;;;;;;7.18;3.53;;;15.20;69.70;;;;;;4944006;28;20047;-78
2023/05/21 06:20:28;;;;;;;9.43;3.93;;;15.20;69.80;;;;;;4958283;28;20129;-78
2023/05/21 06:22:56;;;;;;;7.03;3.40;;;15.30;69.90;;;;;;4945443;28;20048;-78
2023/05/21 06:25:25;;;;;;;7.25;3.53;;;15.20;69.90;;;;;;4951021;28;20146;-78
2023/05/21 06:27:52;;;;;;;8.68;3.63;;;15.30;70.10;;;;;;4950027;28;20047;-78
2023/05/21 06:30:24;;;;;;;8.95;3.67;;;15.30;69.80;;;;;;4949866;28;20496;-79
2023/05/21 06:32:53;;;;;;;8.37;3.80;;;15.30;70.00;;;;;;4958882;28;20062;-78
2023/05/21 06:35:20;;;;;;;7.63;3.90;;;15.30;69.80;;;;;;4956874;28;21065;-78
2023/05/21 06:37:48;;;;;;;6.82;3.40;;;15.30;69.90;;;;;;4946767;28;20127;-78
2023/05/21 06:40:16;;;;;;;8.25;3.55;;;15.30;69.90;;;;;;4951148;28;20058;-79
2023/05/21 06:42:44;;;;;;;7.60;3.63;;;15.30;69.90;;;;;;4950776;28;20058;-78
2023/05/21 06:45:30;;;;;;;8.57;3.70;;;15.40;69.70;;;;;;4967652;28;20616;-79
2023/05/21 06:48:01;;;;;;;7.63;3.30;;;15.40;69.80;;;;;;4950451;28;20055;-78
2023/05/21 06:50:30;;;;;;;9.65;3.92;;;15.40;69.90;;;;;;4947869;28;20047;-78
2023/05/21 06:52:57;;;;;;;7.22;3.63;;;15.40;69.70;;;;;;4949958;28;20066;-78
2023/05/21 06:55:24;;;;;;;6.30;3.33;;;15.40;69.50;;;;;;4949458;28;20047;-78
2023/05/21 06:58:14;;;;;;;8.50;3.70;;;15.40;69.70;;;;;;4949471;28;20047;-78
2023/05/21 07:00:41;;;;;;;14.90;4.10;;;15.50;69.60;;;;;;4965797;28;20047;-78
2023/05/21 07:03:09;;;;;;;8.60;3.60;;;15.50;69.50;;;;;;4951456;28;20051;-78
2023/05/21 07:05:36;;;;;;;8.07;3.95;;;15.50;69.60;;;;;;4967469;28;20999;-78
2023/05/21 07:08:05;;;;;;;7.80;3.60;;;15.50;69.80;;;;;;4949776;28;20406;-78
2023/05/21 07:10:32;;;;;;;8.23;3.17;;;15.50;69.40;;;;;;4940551;28;20055;-78
2023/05/21 07:12:59;;;;;;;7.25;3.10;;;15.60;69.50;;;;;;4964873;28;20178;-78
2023/05/21 07:15:28;;;;;;;12.48;3.88;;;15.60;69.40;;;;;;4942945;28;20118;-79
2023/05/21 07:17:56;;;;;;;6.85;3.45;;;15.60;69.60;;;;;;4967785;28;20130;-88
2023/05/21 07:20:24;;;;;;;6.47;3.40;;;15.60;69.60;;;;;;4951018;28;20126;-87
2023/05/21 07:22:55;;;;;;;7.33;3.17;;;15.60;69.70;;;;;;4965153;28;20502;-86
2023/05/21 07:25:23;;;;;;;7.07;3.10;;;15.70;69.40;;;;;;4952268;28;20055;-88
2023/05/21 07:27:50;;;;;;;7.20;3.30;;;15.70;69.50;;;;;;4967207;28;20054;-88
2023/05/21 07:30:18;;;;;;;6.78;3.20;;;15.70;69.60;;;;;;4951337;28;20051;-87
2023/05/21 07:32:48;;;;;;;8.48;3.20;;;15.70;69.40;;;;;;4951218;28;20047;-85
2023/05/21 07:35:15;;;;;;;6.33;3.40;;;15.80;69.40;;;;;;4966060;28;20063;-87
2023/05/21 07:37:42;;;;;;;6.35;3.55;;;15.80;69.40;;;;;;4951490;28;20134;-88
2023/05/21 07:40:10;;;;;;;6.95;3.22;;;15.80;69.40;;;;;;4949616;28;22309;-89
2023/05/21 07:42:38;;;;;;;7.75;3.70;;;15.80;69.40;;;;;;4944796;28;20102;-88
2023/05/21 07:45:07;;;;;;;7.10;3.90;;;15.80;69.40;;;;;;4953448;28;20047;-89
2023/05/21 07:47:41;;;;;;;8.47;4.20;;;15.90;69.40;;;;;;4970675;28;20055;-89
2023/05/21 07:50:11;;;;;;;8.57;3.92;;;15.90;69.30;;;;;;4971147;28;20083;-90
2023/05/21 07:52:38;;;;;;;9.55;3.83;;;16.00;69.40;;;;;;4970624;28;20050;-89
2023/05/21 07:55:07;;;;;;;8.27;3.63;;;16.00;69.40;;;;;;4954104;28;20055;-89
2023/05/21 07:57:36;;;;;;;8.23;3.58;;;16.00;69.20;;;;;;4971715;28;20529;-88
2023/05/21 08:00:13;;;;;;;5.97;3.10;;;16.00;69.30;;;;;;4970704;28;20482;-88
2023/05/21 08:02:52;;;;;;;8.65;3.60;;;16.00;69.40;;;;;;4957655;28;20147;-90
2023/05/21 08:05:22;;;;;;;9.98;3.67;;;16.10;69.30;;;;;;4956336;28;20051;-88
2023/05/21 08:07:51;;;;;;;8.15;3.53;;;16.10;69.10;;;;;;4953795;28;20051;-88
2023/05/21 08:10:20;;;;;;;9.63;3.75;;;16.10;69.00;;;;;;4953717;28;20138;-88
2023/05/21 08:12:49;;;;;;;7.50;3.50;;;16.10;68.70;;;;;;4954697;28;20050;-90
2023/05/21 08:15:17;;;;;;;6.72;3.40;;;16.20;68.90;;;;;;4954196;28;20138;-88
2023/05/21 08:17:45;;;;;;;7.32;3.67;;;16.20;69.00;;;;;;4949215;28;20049;-88
2023/05/21 08:20:15;;;;;;;7.30;3.22;;;16.20;69.10;;;;;;4954795;28;20058;-89
2023/05/21 08:22:47;;;;;;;7.50;3.50;;;16.30;68.60;;;;;;4954145;28;20055;-88
2023/05/21 08:25:14;;;;;;;7.57;3.37;;;16.40;68.60;;;;;;4951424;28;20055;-89
2023/05/21 08:27:42;;;;;;;8.85;3.53;;;16.40;68.50;;;;;;4971409;28;20075;-89
2023/05/21 08:30:10;;;;;;;7.20;3.80;;;16.40;68.40;;;;;;4969826;28;20135;-90
2023/05/21 08:32:38;;;;;;;9.85;3.58;;;16.40;68.40;;;;;;4970598;28;20058;-87
2023/05/21 08:35:07;;;;;;;7.28;3.72;;;16.40;68.60;;;;;;4970194;28;20055;-88
2023/05/21 08:37:48;;;;;;;12.23;4.00;;;16.50;68.60;;;;;;4954199;28;20052;-89
2023/05/21 08:40:38;;;;;;;7.80;3.67;;;16.50;68.70;;;;;;4988067;28;20047;-89
2023/05/21 08:43:05;;;;;;;6.70;3.70;;;16.50;68.70;;;;;;4955607;28;20059;-89
2023/05/21 08:45:41;;;;;;;7.32;3.65;;;16.60;68.80;;;;;;4967720;28;20430;-88
2023/05/21 08:48:13;;;;;;;7.18;3.55;;;16.60;68.70;;;;;;4952839;28;20154;-86
2023/05/21 08:50:44;;;;;;;8.43;3.70;;;16.60;68.70;;;;;;4955080;28;20466;-89
2023/05/21 08:53:20;;;;;;;6.88;3.55;;;16.70;69.00;;;;;;4953799;28;20084;-87
2023/05/21 08:55:52;;;;;;;7.70;3.80;;;16.70;69.00;;;;;;4961903;28;20055;-89
2023/05/21 08:58:23;;;;;;;10.60;4.22;;;16.70;68.90;;;;;;4968424;28;20055;-87
2023/05/21 09:00:51;;;;;;;8.02;3.80;;;16.80;68.90;;;;;;4954538;28;20120;-86
2023/05/21 09:03:21;;;;;;;7.67;3.80;;;16.80;68.90;;;;;;4969318;28;20066;-80
2023/05/21 09:05:50;;;;;;;9.43;3.88;;;16.90;68.90;;;;;;4953834;28;20048;-85
2023/05/21 09:08:24;;;;;;;7.30;3.88;;;16.90;69.10;;;;;;4953276;28;20845;-84
2023/05/21 09:11:02;;;;;;;6.95;4.03;;;16.90;69.00;;;;;;5013312;23;20054;-85
2023/05/21 09:13:34;;;;;;;8.10;3.90;;;17.00;69.10;;;;;;4970731;28;20170;-85
2023/05/21 09:16:07;;;;;;;7.67;4.00;;;17.00;69.10;;;;;;4967452;28;20051;-82
2023/05/21 09:18:34;;;;;;;12.75;4.50;;;17.00;69.00;;;;;;4971533;28;20055;-83
2023/05/21 09:21:26;;;;;;;7.68;3.83;;;17.00;68.90;;;;;;4957260;28;20063;-84
2023/05/21 09:23:58;;;;;;;7.90;4.30;;;17.10;68.70;;;;;;4961621;28;20166;-88
2023/05/21 09:26:26;;;;;;;7.30;4.15;;;17.20;68.90;;;;;;4971309;28;20055;-88
2023/05/21 09:28:59;;;;;;;7.10;3.30;;;17.20;69.00;;;;;;4973505;28;20059;-85
2023/05/21 09:31:27;;;;;;;6.38;3.67;;;17.20;69.00;;;;;;4985524;28;20549;-88
2023/05/21 09:33:55;;;;;;;9.13;4.00;;;17.30;68.40;;;;;;4986971;28;21031;-85
2023/05/21 09:36:23;;;;;;;7.90;4.28;;;17.30;68.70;;;;;;4955821;28;20039;-84
2023/05/21 09:38:51;;;;;;;8.98;4.38;;;17.40;68.70;;;;;;4966761;28;20083;-85
2023/05/21 09:41:21;;;;;;;8.03;4.37;;;17.40;68.90;;;;;;4954145;28;20404;-85
2023/05/21 09:43:48;;;;;;;8.68;4.65;;;17.50;68.70;;;;;;4984994;28;20066;-86
2023/05/21 09:46:25;;;;;;;8.45;4.07;;;17.50;68.70;;;;;;4956234;28;20859;-86
2023/05/21 09:48:52;;;;;;;8.15;4.20;;;17.50;68.90;;;;;;4966553;28;20513;-85
2023/05/21 09:51:21;;;;;;;8.30;4.03;;;17.60;68.90;;;;;;4986584;28;20055;-84
2023/05/21 09:53:53;;;;;;;7.93;4.07;;;17.60;68.90;;;;;;4985279;28;20061;-82
2023/05/21 09:56:24;;;;;;;8.35;4.40;;;17.70;69.10;;;;;;4969975;28;20051;-82
2023/05/21 09:58:54;;;;;;;7.68;4.22;;;17.80;69.10;;;;;;4969729;28;20050;-84
2023/05/21 10:01:23;;;;;;;9.80;4.30;;;17.80;69.00;;;;;;4966130;28;20813;-85
2023/05/21 10:03:54;;;;;;;9.98;4.50;;;17.80;69.00;;;;;;4969914;28;20050;-84
2023/05/21 10:06:24;;;;;;;9.90;4.53;;;17.90;69.00;;;;;;4985374;28;20913;-85
2023/05/21 10:08:54;;;;;;;9.00;4.15;;;18.00;69.30;;;;;;4970993;28;20079;-84
2023/05/21 10:11:27;;;;;;;9.43;4.50;;;18.00;69.30;;;;;;4964899;28;20061;-85
2023/05/21 10:13:57;;;;;;;10.45;4.70;;;18.10;69.30;;;;;;4969927;28;20544;-85
2023/05/21 10:16:25;;;;;;;8.63;4.25;;;18.20;69.00;;;;;;4986811;28;20583;-83
2023/05/21 10:18:54;;;;;;;9.00;5.27;;;18.20;68.80;;;;;;4973700;28;20129;-83
2023/05/21 10:21:22;;;;;;;9.45;4.80;;;18.30;68.90;;;;;;4976048;28;20489;-83
2023/05/21 10:23:50;;;;;;;7.97;4.80;;;18.30;68.90;;;;;;4967044;28;20147;-84
2023/05/21 10:26:20;;;;;;;9.48;4.60;;;18.40;68.90;;;;;;4953791;28;20838;-83
2023/05/21 10:28:49;;;;;;;9.68;5.40;;;18.40;68.60;;;;;;4969851;28;20719;-81
2023/05/21 10:31:16;;;;;;;10.47;5.20;;;18.50;68.60;;;;;;4969224;28;20505;-85
2023/05/21 10:33:44;;;;;;;9.13;5.18;;;18.50;68.60;;;;;;4966390;28;20649;-84
2023/05/21 10:36:11;;;;;;;9.13;4.50;;;18.60;68.40;;;;;;4983365;28;20125;-83
2023/05/21 10:38:39;;;;;;;8.80;5.22;;;18.60;68.60;;;;;;4970127;28;20487;-84
2023/05/21 10:41:07;;;;;;;9.02;4.82;;;18.70;68.70;;;;;;4970366;28;20051;-84
2023/05/21 10:43:57;;;;;;;10.40;4.87;;;18.70;68.50;;;;;;4983582;28;20059;-83
2023/05/21 10:46:43;;;;;;;11.63;5.05;;;18.80;68.40;;;;;;4978589;28;20090;-84
2023/05/21 10:49:35;;;;;;;9.50;4.38;;;18.90;68.60;;;;;;4959488;28;20161;-85
2023/05/21 10:52:13;;;;;;;8.45;4.50;;;18.90;68.40;;;;;;4983192;28;20082;-87
2023/05/21 10:54:57;;;;;;;8.38;4.88;;;19.00;68.50;;;;;;4980432;28;20740;-87
2023/05/21 10:57:59;;;;;;;9.67;5.07;;;19.10;68.10;;;;;;4965037;28;21571;-87
2023/05/21 11:00:30;;;;;;;9.32;4.45;;;19.10;68.10;;;;;;4947118;28;20059;-87
2023/05/21 11:02:58;;;;;;;8.25;4.68;;;19.20;68.30;;;;;;4952548;28;20600;-88
2023/05/21 11:05:52;;;;;;;10.70;5.50;;;19.30;68.20;;;;;;4984880;28;20051;-87
2023/05/21 11:08:22;;;;;;;7.68;4.70;;;19.40;67.70;;;;;;4985358;28;20067;-88
2023/05/21 11:10:54;;;;;;;10.03;5.13;;;19.40;68.00;;;;;;4967560;28;20054;-86
2023/05/21 11:13:22;;;;;;;9.05;5.25;;;19.50;68.10;;;;;;4965274;28;20472;-86
2023/05/21 11:16:14;;;;;;;8.93;5.20;;;19.50;68.20;;;;;;4989398;28;20061;-87
2023/05/21 11:18:58;;;;;;;9.80;5.75;;;19.60;67.90;;;;;;4966270;28;20059;-86
2023/05/21 11:21:30;;;;;;;11.35;5.88;;;19.70;67.80;;;;;;4955233;28;20058;-86
2023/05/21 11:24:03;;;;;;;10.27;5.47;;;19.70;67.60;;;;;;4962840;28;21093;-81
2023/05/21 11:27:03;;;;;;;10.57;5.68;;;19.70;67.70;;;;;;4967942;28;20631;-82
2023/05/21 11:29:46;;;;;;;12.57;7.40;;;19.90;67.70;;;;;;4970488;28;20059;-82
2023/05/21 11:32:16;;;;;;;10.68;6.15;;;20.00;67.80;;;;;;4970842;28;20384;-82
2023/05/21 11:34:45;;;;;;;14.40;6.60;;;20.00;67.60;;;;;;4972736;28;20134;-80
2023/05/21 11:37:30;;;;;;;12.13;7.00;;;20.10;67.20;;;;;;4993449;28;20062;-82
2023/05/21 11:40:16;;;;;;;11.43;7.57;;;20.10;66.90;;;;;;4965982;28;21046;-83
2023/05/21 11:42:43;;;;;;;10.88;6.93;;;20.30;67.10;;;;;;4967307;28;20137;-83
2023/05/21 11:45:11;;;;;;;31.10;9.20;;;20.30;67.30;;;;;;4969672;28;20057;-82
2023/05/21 11:47:40;;;;;;;11.98;7.57;;;20.40;67.00;;;;;;4972913;28;20082;-83
2023/05/21 11:50:13;;;;;;;13.47;8.03;;;20.50;66.60;;;;;;4972680;28;20062;-83
2023/05/21 11:52:41;;;;;;;14.45;8.68;;;20.50;66.50;;;;;;4968460;28;20081;-82
2023/05/21 11:55:10;;;;;;;15.95;9.52;;;20.60;66.20;;;;;;4970480;28;20082;-84
2023/05/21 11:57:37;;;;;;;14.30;8.80;;;20.60;66.00;;;;;;4967055;28;20777;-84
2023/05/21 12:00:12;;;;;;;16.40;9.70;;;20.70;66.00;;;;;;4971987;28;20055;-85
2023/05/21 12:02:45;;;;;;;18.33;10.07;;;20.80;66.10;;;;;;4970724;28;20520;-87
2023/05/21 12:05:12;;;;;;;16.15;9.68;;;20.90;65.80;;;;;;4969816;28;20121;-85
2023/05/21 12:07:39;;;;;;;14.55;9.10;;;20.90;65.60;;;;;;4988580;28;20059;-81
2023/05/21 12:10:07;;;;;;;13.45;9.23;;;21.00;65.50;;;;;;4971811;28;20051;-82
2023/05/21 12:12:34;;;;;;;16.45;10.18;;;21.10;65.40;;;;;;4988558;28;20070;-83
2023/05/21 12:15:03;;;;;;;17.10;10.33;;;21.10;65.20;;;;;;4989157;28;20051;-83
2023/05/21 12:17:31;;;;;;;16.08;9.60;;;21.20;65.10;;;;;;4970407;28;20525;-86
2023/05/21 12:20:00;;;;;;;15.55;9.63;;;21.30;65.20;;;;;;4972364;28;20612;-85
2023/05/21 12:22:28;;;;;;;29.77;10.45;;;21.30;65.10;;;;;;4956395;28;20068;-84
2023/05/21 12:24:59;;;;;;;16.75;9.80;;;21.40;65.10;;;;;;4989494;28;20055;-86
2023/05/21 12:27:27;;;;;;;15.10;9.97;;;21.50;64.90;;;;;;4989533;28;20097;-85
2023/05/21 12:29:55;;;;;;;13.95;9.52;;;21.50;64.90;;;;;;4971473;28;20527;-84
2023/05/21 12:32:22;;;;;;;17.65;9.45;;;21.60;64.50;;;;;;4987107;28;20879;-85
2023/05/21 12:34:51;;;;;;;15.88;10.23;;;21.70;64.50;;;;;;4971731;28;20053;-87
2023/05/21 12:37:22;;;;;;;16.17;10.43;;;21.70;64.70;;;;;;4970950;28;20093;-87
2023/05/21 12:39:51;;;;;;;15.10;9.27;;;21.80;64.30;;;;;;4954410;28;20448;-85
2023/05/21 12:42:25;;;;;;;15.52;10.45;;;21.90;64.40;;;;;;4969517;28;20051;-83
2023/05/21 12:44:53;;;;;;;17.02;10.07;;;21.90;64.30;;;;;;4955610;28;20145;-83
2023/05/21 12:47:24;;;;;;;19.73;11.13;;;22.00;64.20;;;;;;4988716;28;20061;-85
2023/05/21 12:49:55;;;;;;;15.68;9.77;;;22.00;64.00;;;;;;4965560;28;20788;-85
2023/05/21 12:52:24;;;;;;;19.93;10.07;;;22.10;64.00;;;;;;4955680;28;20966;-85
2023/05/21 12:54:56;;;;;;;16.92;10.45;;;22.20;64.10;;;;;;4974552;28;20090;-87
2023/05/21 12:57:25;;;;;;;18.45;11.15;;;22.30;64.10;;;;;;4968264;28;20054;-81
2023/05/21 12:59:55;;;;;;;16.27;11.18;;;22.40;63.80;;;;;;4986099;28;20054;-81